Terminal Aerodrome Forecast
Issued by NWS

Home | Current Version | Previous Version | Graphics & Text | Print | Product List | Glossary On
Versions: 1 2 3 4 5 6 7 8 9 10 11 12 13 14 15 16 17 18 19 20 21 22 23 24 25 26 27 28 29 30
000
FTUS43 KABR 190530 AAC
TAFPIR
TAF AMD
KPIR 190530Z 1906/1924 36018KT 2SM -SN BR BLSN BKN030 OVC060
     FM191200 01012KT 1SM -SN OVC025
     FM191800 02013KT 3/4SM -SN BLSN OVC020=

USA.gov is the U.S. government's official web portal to all federal, state and local government web resources and services.